sensor_id;sensor_type;location;lat;lon;timestamp;temperature;humidity
11239;DHT22;5677;48.488;13.436;2022-09-12T00:01:17;18.60;57.00
11239;DHT22;5677;48.488;13.436;2022-09-12T00:03:45;18.60;57.10
11239;DHT22;5677;48.488;13.436;2022-09-12T00:06:17;18.50;57.10
11239;DHT22;5677;48.488;13.436;2022-09-12T00:08:45;18.60;57.10
11239;DHT22;5677;48.488;13.436;2022-09-12T00:11:12;18.60;57.00
11239;DHT22;5677;48.488;13.436;2022-09-12T00:13:40;18.50;57.10
11239;DHT22;5677;48.488;13.436;2022-09-12T00:16:14;18.50;57.00
11239;DHT22;5677;48.488;13.436;2022-09-12T00:18:42;18.50;57.00
11239;DHT22;5677;48.488;13.436;2022-09-12T00:21:11;18.60;57.00
11239;DHT22;5677;48.488;13.436;2022-09-12T00:23:40;18.50;57.10
11239;DHT22;5677;48.488;13.436;2022-09-12T00:26:08;18.50;57.10
11239;DHT22;5677;48.488;13.436;2022-09-12T00:28:37;18.50;57.00
11239;DHT22;5677;48.488;13.436;2022-09-12T00:31:07;18.50;57.00
11239;DHT22;5677;48.488;13.436;2022-09-12T00:33:36;18.50;57.00
11239;DHT22;5677;48.488;13.436;2022-09-12T00:36:05;18.50;57.00
11239;DHT22;5677;48.488;13.436;2022-09-12T00:38:35;18.50;57.00
11239;DHT22;5677;48.488;13.436;2022-09-12T00:41:07;18.50;57.00
11239;DHT22;5677;48.488;13.436;2022-09-12T00:43:39;18.50;57.10
11239;DHT22;5677;48.488;13.436;2022-09-12T00:46:15;18.50;57.00
11239;DHT22;5677;48.488;13.436;2022-09-12T00:48:55;18.50;57.00
11239;DHT22;5677;48.488;13.436;2022-09-12T00:51:26;18.50;57.00
11239;DHT22;5677;48.488;13.436;2022-09-12T00:53:58;18.50;57.10
11239;DHT22;5677;48.488;13.436;2022-09-12T00:56:28;18.50;57.00
11239;DHT22;5677;48.488;13.436;2022-09-12T00:58:59;18.50;57.00
11239;DHT22;5677;48.488;13.436;2022-09-12T01:01:29;18.50;57.10
11239;DHT22;5677;48.488;13.436;2022-09-12T01:03:57;18.50;57.10
11239;DHT22;5677;48.488;13.436;2022-09-12T01:06:26;18.50;57.00
11239;DHT22;5677;48.488;13.436;2022-09-12T01:08:59;18.50;57.10
11239;DHT22;5677;48.488;13.436;2022-09-12T01:11:29;18.50;57.00
11239;DHT22;5677;48.488;13.436;2022-09-12T01:13:56;18.50;57.10
11239;DHT22;5677;48.488;13.436;2022-09-12T01:16:24;18.50;57.00
11239;DHT22;5677;48.488;13.436;2022-09-12T01:19:00;18.50;57.00
11239;DHT22;5677;48.488;13.436;2022-09-12T01:21:46;18.50;57.00
11239;DHT22;5677;48.488;13.436;2022-09-12T01:24:48;18.50;57.10
11239;DHT22;5677;48.488;13.436;2022-09-12T01:27:46;18.50;57.10
11239;DHT22;5677;48.488;13.436;2022-09-12T01:30:40;18.50;57.10
11239;DHT22;5677;48.488;13.436;2022-09-12T01:33:38;18.50;57.00
11239;DHT22;5677;48.488;13.436;2022-09-12T01:36:30;18.50;57.10
11239;DHT22;5677;48.488;13.436;2022-09-12T01:39:04;18.50;57.10
11239;DHT22;5677;48.488;13.436;2022-09-12T01:41:46;18.50;57.10
11239;DHT22;5677;48.488;13.436;2022-09-12T01:44:24;18.50;57.10
11239;DHT22;5677;48.488;13.436;2022-09-12T01:47:05;18.50;57.10
11239;DHT22;5677;48.488;13.436;2022-09-12T01:49:39;18.50;57.10
11239;DHT22;5677;48.488;13.436;2022-09-12T01:52:18;18.50;57.10
11239;DHT22;5677;48.488;13.436;2022-09-12T01:54:51;18.50;57.10
11239;DHT22;5677;48.488;13.436;2022-09-12T01:57:24;18.50;57.10
11239;DHT22;5677;48.488;13.436;2022-09-12T01:59:57;18.50;57.10
11239;DHT22;5677;48.488;13.436;2022-09-12T02:02:34;18.50;57.10
11239;DHT22;5677;48.488;13.436;2022-09-12T02:05:07;18.50;57.10
11239;DHT22;5677;48.488;13.436;2022-09-12T02:07:38;18.50;57.10
11239;DHT22;5677;48.488;13.436;2022-09-12T02:10:11;18.50;57.10
11239;DHT22;5677;48.488;13.436;2022-09-12T02:12:43;18.50;57.10
11239;DHT22;5677;48.488;13.436;2022-09-12T02:15:16;18.50;57.10
11239;DHT22;5677;48.488;13.436;2022-09-12T02:17:49;18.50;57.10
11239;DHT22;5677;48.488;13.436;2022-09-12T02:20:22;18.50;57.10
11239;DHT22;5677;48.488;13.436;2022-09-12T02:22:53;18.50;57.00
11239;DHT22;5677;48.488;13.436;2022-09-12T02:25:24;18.50;57.10
11239;DHT22;5677;48.488;13.436;2022-09-12T02:27:56;18.40;57.00
11239;DHT22;5677;48.488;13.436;2022-09-12T02:30:31;18.40;57.00
11239;DHT22;5677;48.488;13.436;2022-09-12T02:33:11;18.50;57.10
11239;DHT22;5677;48.488;13.436;2022-09-12T02:35:49;18.50;57.10
11239;DHT22;5677;48.488;13.436;2022-09-12T02:38:24;18.40;57.00
11239;DHT22;5677;48.488;13.436;2022-09-12T02:40:56;18.50;57.10
11239;DHT22;5677;48.488;13.436;2022-09-12T02:43:24;18.40;57.00
11239;DHT22;5677;48.488;13.436;2022-09-12T02:45:51;18.50;57.10
11239;DHT22;5677;48.488;13.436;2022-09-12T02:48:22;18.40;57.00
11239;DHT22;5677;48.488;13.436;2022-09-12T02:50:53;18.40;57.00
11239;DHT22;5677;48.488;13.436;2022-09-12T02:53:21;18.50;57.10
11239;DHT22;5677;48.488;13.436;2022-09-12T02:55:48;18.50;57.10
11239;DHT22;5677;48.488;13.436;2022-09-12T02:58:20;18.40;57.00
11239;DHT22;5677;48.488;13.436;2022-09-12T03:00:53;18.40;57.00
11239;DHT22;5677;48.488;13.436;2022-09-12T03:03:37;18.40;57.00
11239;DHT22;5677;48.488;13.436;2022-09-12T03:06:23;18.50;57.10
11239;DHT22;5677;48.488;13.436;2022-09-12T03:09:05;18.40;57.00
11239;DHT22;5677;48.488;13.436;2022-09-12T03:11:49;18.50;57.10
11239;DHT22;5677;48.488;13.436;2022-09-12T03:14:55;18.50;57.10
11239;DHT22;5677;48.488;13.436;2022-09-12T03:17:40;18.50;57.10
11239;DHT22;5677;48.488;13.436;2022-09-12T03:20:21;18.40;57.00
11239;DHT22;5677;48.488;13.436;2022-09-12T03:22:59;18.40;57.00
11239;DHT22;5677;48.488;13.436;2022-09-12T03:25:35;18.40;57.00
11239;DHT22;5677;48.488;13.436;2022-09-12T03:28:10;18.40;57.00
11239;DHT22;5677;48.488;13.436;2022-09-12T03:30:42;18.40;57.00
11239;DHT22;5677;48.488;13.436;2022-09-12T03:33:11;18.40;57.00
11239;DHT22;5677;48.488;13.436;2022-09-12T03:35:40;18.40;57.00
11239;DHT22;5677;48.488;13.436;2022-09-12T03:38:08;18.40;57.00
11239;DHT22;5677;48.488;13.436;2022-09-12T03:40:36;18.40;57.00
11239;DHT22;5677;48.488;13.436;2022-09-12T03:43:05;18.40;57.00
11239;DHT22;5677;48.488;13.436;2022-09-12T03:45:34;18.40;57.00
11239;DHT22;5677;48.488;13.436;2022-09-12T03:48:02;18.40;57.00
11239;DHT22;5677;48.488;13.436;2022-09-12T03:50:30;18.40;57.00
11239;DHT22;5677;48.488;13.436;2022-09-12T03:52:59;18.40;57.00
11239;DHT22;5677;48.488;13.436;2022-09-12T03:55:27;18.40;57.00
11239;DHT22;5677;48.488;13.436;2022-09-12T03:57:54;18.40;57.00
11239;DHT22;5677;48.488;13.436;2022-09-12T04:00:21;18.40;57.00
11239;DHT22;5677;48.488;13.436;2022-09-12T04:02:52;18.40;57.00
11239;DHT22;5677;48.488;13.436;2022-09-12T04:05:21;18.40;57.00
11239;DHT22;5677;48.488;13.436;2022-09-12T04:07:48;18.40;57.00
11239;DHT22;5677;48.488;13.436;2022-09-12T04:10:16;18.40;57.00
11239;DHT22;5677;48.488;13.436;2022-09-12T04:12:43;18.40;57.00
11239;DHT22;5677;48.488;13.436;2022-09-12T04:15:10;18.40;57.00
11239;DHT22;5677;48.488;13.436;2022-09-12T04:17:37;18.40;57.00
11239;DHT22;5677;48.488;13.436;2022-09-12T04:20:05;18.40;57.00
11239;DHT22;5677;48.488;13.436;2022-09-12T04:22:32;18.40;57.00
11239;DHT22;5677;48.488;13.436;2022-09-12T04:24:59;18.40;57.00
11239;DHT22;5677;48.488;13.436;2022-09-12T04:27:27;18.40;57.00
11239;DHT22;5677;48.488;13.436;2022-09-12T04:29:55;18.40;57.00
11239;DHT22;5677;48.488;13.436;2022-09-12T04:32:22;18.40;57.00
11239;DHT22;5677;48.488;13.436;2022-09-12T04:34:49;18.40;57.00
11239;DHT22;5677;48.488;13.436;2022-09-12T04:37:17;18.40;57.00
11239;DHT22;5677;48.488;13.436;2022-09-12T04:39:43;18.40;57.00
11239;DHT22;5677;48.488;13.436;2022-09-12T04:42:13;18.40;57.00
11239;DHT22;5677;48.488;13.436;2022-09-12T04:44:42;18.40;57.00
11239;DHT22;5677;48.488;13.436;2022-09-12T04:47:09;18.40;57.00
11239;DHT22;5677;48.488;13.436;2022-09-12T04:49:36;18.40;57.00
11239;DHT22;5677;48.488;13.436;2022-09-12T04:52:03;18.40;57.70
11239;DHT22;5677;48.488;13.436;2022-09-12T04:54:30;18.40;57.00
11239;DHT22;5677;48.488;13.436;2022-09-12T04:56:57;18.40;57.00
11239;DHT22;5677;48.488;13.436;2022-09-12T04:59:24;18.40;57.00
11239;DHT22;5677;48.488;13.436;2022-09-12T05:01:52;18.40;57.00
11239;DHT22;5677;48.488;13.436;2022-09-12T05:04:19;18.40;57.00
11239;DHT22;5677;48.488;13.436;2022-09-12T05:06:46;18.40;57.00
11239;DHT22;5677;48.488;13.436;2022-09-12T05:09:13;18.40;57.00
11239;DHT22;5677;48.488;13.436;2022-09-12T05:11:42;18.40;57.00
11239;DHT22;5677;48.488;13.436;2022-09-12T05:14:10;18.40;57.00
11239;DHT22;5677;48.488;13.436;2022-09-12T05:16:37;18.40;57.00
11239;DHT22;5677;48.488;13.436;2022-09-12T05:19:06;18.40;57.00
11239;DHT22;5677;48.488;13.436;2022-09-12T05:21:33;18.40;57.00
11239;DHT22;5677;48.488;13.436;2022-09-12T05:24:00;18.40;57.00
11239;DHT22;5677;48.488;13.436;2022-09-12T05:26:31;18.40;57.00
11239;DHT22;5677;48.488;13.436;2022-09-12T05:28:57;18.40;57.00
11239;DHT22;5677;48.488;13.436;2022-09-12T05:31:26;18.40;57.10
11239;DHT22;5677;48.488;13.436;2022-09-12T05:33:54;18.40;57.00
11239;DHT22;5677;48.488;13.436;2022-09-12T05:36:25;18.40;57.10
11239;DHT22;5677;48.488;13.436;2022-09-12T05:38:53;18.40;57.00
11239;DHT22;5677;48.488;13.436;2022-09-12T05:41:22;18.40;57.00
11239;DHT22;5677;48.488;13.436;2022-09-12T05:43:51;18.40;57.00
11239;DHT22;5677;48.488;13.436;2022-09-12T05:46:20;18.30;57.00
11239;DHT22;5677;48.488;13.436;2022-09-12T05:48:49;18.40;57.00
11239;DHT22;5677;48.488;13.436;2022-09-12T05:51:19;18.40;57.00
11239;DHT22;5677;48.488;13.436;2022-09-12T05:53:50;18.30;57.00
11239;DHT22;5677;48.488;13.436;2022-09-12T05:56:20;18.40;57.00
11239;DHT22;5677;48.488;13.436;2022-09-12T05:58:52;18.30;57.00
11239;DHT22;5677;48.488;13.436;2022-09-12T06:01:22;18.30;57.00
11239;DHT22;5677;48.488;13.436;2022-09-12T06:03:51;18.40;57.00
11239;DHT22;5677;48.488;13.436;2022-09-12T06:06:21;18.30;57.00
11239;DHT22;5677;48.488;13.436;2022-09-12T06:08:51;18.30;57.00
11239;DHT22;5677;48.488;13.436;2022-09-12T06:11:22;18.30;57.00
11239;DHT22;5677;48.488;13.436;2022-09-12T06:13:52;18.30;57.00
11239;DHT22;5677;48.488;13.436;2022-09-12T06:16:21;18.40;57.00
11239;DHT22;5677;48.488;13.436;2022-09-12T06:18:51;18.30;57.00
11239;DHT22;5677;48.488;13.436;2022-09-12T06:21:19;18.30;57.00
11239;DHT22;5677;48.488;13.436;2022-09-12T06:23:49;18.40;57.00
11239;DHT22;5677;48.488;13.436;2022-09-12T06:26:17;18.30;57.00
11239;DHT22;5677;48.488;13.436;2022-09-12T06:28:46;18.40;57.00
11239;DHT22;5677;48.488;13.436;2022-09-12T06:31:14;18.30;57.00
11239;DHT22;5677;48.488;13.436;2022-09-12T06:33:44;18.30;57.00
11239;DHT22;5677;48.488;13.436;2022-09-12T06:36:15;18.30;57.00
11239;DHT22;5677;48.488;13.436;2022-09-12T06:38:43;18.30;57.00
11239;DHT22;5677;48.488;13.436;2022-09-12T06:41:13;18.30;57.00
11239;DHT22;5677;48.488;13.436;2022-09-12T06:43:41;18.30;57.00
11239;DHT22;5677;48.488;13.436;2022-09-12T06:46:09;18.30;57.00
11239;DHT22;5677;48.488;13.436;2022-09-12T06:48:37;18.30;57.00
11239;DHT22;5677;48.488;13.436;2022-09-12T06:51:06;18.30;57.00
11239;DHT22;5677;48.488;13.436;2022-09-12T06:53:36;18.30;57.00
11239;DHT22;5677;48.488;13.436;2022-09-12T06:56:05;18.30;57.00
11239;DHT22;5677;48.488;13.436;2022-09-12T06:58:35;18.30;57.00
11239;DHT22;5677;48.488;13.436;2022-09-12T07:01:03;18.30;57.00
11239;DHT22;5677;48.488;13.436;2022-09-12T07:03:33;18.30;57.00
11239;DHT22;5677;48.488;13.436;2022-09-12T07:06:02;18.30;57.00
11239;DHT22;5677;48.488;13.436;2022-09-12T07:08:30;18.30;57.00
11239;DHT22;5677;48.488;13.436;2022-09-12T07:10:59;18.30;57.00
11239;DHT22;5677;48.488;13.436;2022-09-12T07:13:35;18.30;56.90
11239;DHT22;5677;48.488;13.436;2022-09-12T07:16:02;18.30;56.90
11239;DHT22;5677;48.488;13.436;2022-09-12T07:18:30;18.30;57.00
11239;DHT22;5677;48.488;13.436;2022-09-12T07:20:58;18.30;57.00
11239;DHT22;5677;48.488;13.436;2022-09-12T07:23:26;18.30;57.00
11239;DHT22;5677;48.488;13.436;2022-09-12T07:25:54;18.30;57.00
11239;DHT22;5677;48.488;13.436;2022-09-12T07:28:21;18.30;57.00
11239;DHT22;5677;48.488;13.436;2022-09-12T07:30:50;18.30;57.00
11239;DHT22;5677;48.488;13.436;2022-09-12T07:33:18;18.40;57.00
11239;DHT22;5677;48.488;13.436;2022-09-12T07:35:45;18.30;56.90
11239;DHT22;5677;48.488;13.436;2022-09-12T07:38:12;18.30;56.90
11239;DHT22;5677;48.488;13.436;2022-09-12T07:40:39;18.30;57.00
11239;DHT22;5677;48.488;13.436;2022-09-12T07:43:06;18.40;56.90
11239;DHT22;5677;48.488;13.436;2022-09-12T07:45:33;18.30;56.90
11239;DHT22;5677;48.488;13.436;2022-09-12T07:48:01;18.40;56.90
11239;DHT22;5677;48.488;13.436;2022-09-12T07:50:28;18.40;56.90
11239;DHT22;5677;48.488;13.436;2022-09-12T07:52:55;18.40;56.90
11239;DHT22;5677;48.488;13.436;2022-09-12T07:55:22;18.40;56.90
11239;DHT22;5677;48.488;13.436;2022-09-12T07:57:49;18.40;56.90
11239;DHT22;5677;48.488;13.436;2022-09-12T08:00:17;18.40;56.90
11239;DHT22;5677;48.488;13.436;2022-09-12T08:02:44;18.40;56.90
11239;DHT22;5677;48.488;13.436;2022-09-12T08:05:17;18.40;56.90
11239;DHT22;5677;48.488;13.436;2022-09-12T08:07:45;18.40;56.90
11239;DHT22;5677;48.488;13.436;2022-09-12T08:10:12;18.40;56.90
11239;DHT22;5677;48.488;13.436;2022-09-12T08:12:38;18.40;56.90
11239;DHT22;5677;48.488;13.436;2022-09-12T08:15:06;18.40;56.90
11239;DHT22;5677;48.488;13.436;2022-09-12T08:17:33;18.40;56.90
11239;DHT22;5677;48.488;13.436;2022-09-12T08:20:01;18.40;56.80
11239;DHT22;5677;48.488;13.436;2022-09-12T08:22:30;18.40;56.90
11239;DHT22;5677;48.488;13.436;2022-09-12T08:24:57;18.40;56.80
11239;DHT22;5677;48.488;13.436;2022-09-12T08:27:24;18.40;56.90
11239;DHT22;5677;48.488;13.436;2022-09-12T08:29:51;18.40;56.80
11239;DHT22;5677;48.488;13.436;2022-09-12T08:32:19;18.40;57.50
11239;DHT22;5677;48.488;13.436;2022-09-12T08:34:46;18.40;56.90
11239;DHT22;5677;48.488;13.436;2022-09-12T08:37:13;18.40;56.80
11239;DHT22;5677;48.488;13.436;2022-09-12T08:39:41;18.40;56.80
11239;DHT22;5677;48.488;13.436;2022-09-12T08:42:10;18.40;56.80
11239;DHT22;5677;48.488;13.436;2022-09-12T08:45:08;18.40;56.80
11239;DHT22;5677;48.488;13.436;2022-09-12T08:47:44;18.40;56.80
11239;DHT22;5677;48.488;13.436;2022-09-12T08:50:16;18.40;56.80
11239;DHT22;5677;48.488;13.436;2022-09-12T08:52:51;18.40;56.80
11239;DHT22;5677;48.488;13.436;2022-09-12T08:55:31;18.40;56.80
11239;DHT22;5677;48.488;13.436;2022-09-12T08:58:01;18.40;56.80
11239;DHT22;5677;48.488;13.436;2022-09-12T09:00:43;18.40;56.80
11239;DHT22;5677;48.488;13.436;2022-09-12T09:06:37;18.40;56.80
11239;DHT22;5677;48.488;13.436;2022-09-12T09:09:29;18.40;56.80
11239;DHT22;5677;48.488;13.436;2022-09-12T09:12:17;18.40;56.70
11239;DHT22;5677;48.488;13.436;2022-09-12T09:15:04;18.40;56.70
11239;DHT22;5677;48.488;13.436;2022-09-12T09:17:47;18.40;56.70
11239;DHT22;5677;48.488;13.436;2022-09-12T09:20:23;18.50;56.80
11239;DHT22;5677;48.488;13.436;2022-09-12T09:22:56;18.50;56.80
11239;DHT22;5677;48.488;13.436;2022-09-12T09:25:37;18.40;56.70
11239;DHT22;5677;48.488;13.436;2022-09-12T09:28:15;18.50;56.70
11239;DHT22;5677;48.488;13.436;2022-09-12T09:30:46;18.50;56.70
11239;DHT22;5677;48.488;13.436;2022-09-12T09:33:20;18.50;56.70
11239;DHT22;5677;48.488;13.436;2022-09-12T09:35:58;18.50;56.70
11239;DHT22;5677;48.488;13.436;2022-09-12T09:38:38;18.50;56.60
11239;DHT22;5677;48.488;13.436;2022-09-12T09:41:21;18.50;56.60
11239;DHT22;5677;48.488;13.436;2022-09-12T09:44:00;18.50;56.60
11239;DHT22;5677;48.488;13.436;2022-09-12T09:46:27;18.60;56.60
11239;DHT22;5677;48.488;13.436;2022-09-12T09:48:56;18.60;56.50
11239;DHT22;5677;48.488;13.436;2022-09-12T09:51:26;18.50;56.50
11239;DHT22;5677;48.488;13.436;2022-09-12T09:54:01;18.60;56.40
11239;DHT22;5677;48.488;13.436;2022-09-12T09:56:36;18.60;56.40
11239;DHT22;5677;48.488;13.436;2022-09-12T09:59:10;18.60;56.40
11239;DHT22;5677;48.488;13.436;2022-09-12T10:01:43;18.60;56.40
11239;DHT22;5677;48.488;13.436;2022-09-12T10:04:18;18.60;56.40
11239;DHT22;5677;48.488;13.436;2022-09-12T10:06:46;18.60;56.40
11239;DHT22;5677;48.488;13.436;2022-09-12T10:09:18;18.60;56.40
11239;DHT22;5677;48.488;13.436;2022-09-12T10:11:49;18.60;56.40
11239;DHT22;5677;48.488;13.436;2022-09-12T10:14:42;18.70;56.40
11239;DHT22;5677;48.488;13.436;2022-09-12T10:17:23;18.70;56.50
11239;DHT22;5677;48.488;13.436;2022-09-12T10:19:53;18.70;56.50
11239;DHT22;5677;48.488;13.436;2022-09-12T10:22:22;18.70;56.50
11239;DHT22;5677;48.488;13.436;2022-09-12T10:24:53;18.70;56.40
11239;DHT22;5677;48.488;13.436;2022-09-12T10:27:24;18.70;56.50
11239;DHT22;5677;48.488;13.436;2022-09-12T10:30:01;18.70;56.50
11239;DHT22;5677;48.488;13.436;2022-09-12T10:32:34;18.70;56.50
11239;DHT22;5677;48.488;13.436;2022-09-12T10:35:06;18.70;56.50
11239;DHT22;5677;48.488;13.436;2022-09-12T10:37:51;18.70;56.50
11239;DHT22;5677;48.488;13.436;2022-09-12T10:40:22;18.80;56.50
11239;DHT22;5677;48.488;13.436;2022-09-12T10:42:52;18.70;56.60
11239;DHT22;5677;48.488;13.436;2022-09-12T10:45:25;18.70;56.50
11239;DHT22;5677;48.488;13.436;2022-09-12T10:47:55;18.80;56.50
11239;DHT22;5677;48.488;13.436;2022-09-12T10:50:27;18.80;56.60
11239;DHT22;5677;48.488;13.436;2022-09-12T10:53:18;18.80;56.60
11239;DHT22;5677;48.488;13.436;2022-09-12T10:56:02;18.80;56.60
11239;DHT22;5677;48.488;13.436;2022-09-12T10:58:43;18.80;56.60
11239;DHT22;5677;48.488;13.436;2022-09-12T11:01:39;18.80;56.60
11239;DHT22;5677;48.488;13.436;2022-09-12T11:04:23;18.80;56.60
11239;DHT22;5677;48.488;13.436;2022-09-12T11:07:05;18.80;56.60
11239;DHT22;5677;48.488;13.436;2022-09-12T11:09:47;18.80;57.30
11239;DHT22;5677;48.488;13.436;2022-09-12T11:12:24;18.80;56.70
11239;DHT22;5677;48.488;13.436;2022-09-12T11:15:24;18.80;56.60
11239;DHT22;5677;48.488;13.436;2022-09-12T11:18:13;18.80;56.60
11239;DHT22;5677;48.488;13.436;2022-09-12T11:21:04;18.80;56.60
11239;DHT22;5677;48.488;13.436;2022-09-12T11:23:52;18.80;56.70
11239;DHT22;5677;48.488;13.436;2022-09-12T11:26:43;18.90;56.80
11239;DHT22;5677;48.488;13.436;2022-09-12T11:29:29;18.90;56.70
11239;DHT22;5677;48.488;13.436;2022-09-12T11:32:27;18.90;56.70
11239;DHT22;5677;48.488;13.436;2022-09-12T11:35:08;18.90;57.10
11239;DHT22;5677;48.488;13.436;2022-09-12T11:37:52;18.90;56.90
11239;DHT22;5677;48.488;13.436;2022-09-12T11:40:37;18.90;56.70
11239;DHT22;5677;48.488;13.436;2022-09-12T11:43:20;19.00;56.70
11239;DHT22;5677;48.488;13.436;2022-09-12T11:45:51;19.00;56.70
11239;DHT22;5677;48.488;13.436;2022-09-12T11:48:27;19.00;56.70
11239;DHT22;5677;48.488;13.436;2022-09-12T11:51:03;18.90;56.70
11239;DHT22;5677;48.488;13.436;2022-09-12T11:53:36;18.90;56.80
11239;DHT22;5677;48.488;13.436;2022-09-12T11:56:11;18.90;56.80
11239;DHT22;5677;48.488;13.436;2022-09-12T11:58:42;19.00;56.70
11239;DHT22;5677;48.488;13.436;2022-09-12T12:01:16;19.00;56.70
11239;DHT22;5677;48.488;13.436;2022-09-12T12:03:47;19.00;56.80
11239;DHT22;5677;48.488;13.436;2022-09-12T12:06:21;19.00;57.40
11239;DHT22;5677;48.488;13.436;2022-09-12T12:08:52;19.00;56.70
11239;DHT22;5677;48.488;13.436;2022-09-12T12:11:27;19.00;56.70
11239;DHT22;5677;48.488;13.436;2022-09-12T12:13:59;19.00;56.70
11239;DHT22;5677;48.488;13.436;2022-09-12T12:16:31;19.00;56.70
11239;DHT22;5677;48.488;13.436;2022-09-12T12:19:01;19.00;56.70
11239;DHT22;5677;48.488;13.436;2022-09-12T12:21:37;19.00;56.70
11239;DHT22;5677;48.488;13.436;2022-09-12T12:24:13;19.00;56.70
11239;DHT22;5677;48.488;13.436;2022-09-12T12:26:54;19.10;56.80
11239;DHT22;5677;48.488;13.436;2022-09-12T12:29:39;19.10;56.80
11239;DHT22;5677;48.488;13.436;2022-09-12T12:32:24;19.10;56.80
11239;DHT22;5677;48.488;13.436;2022-09-12T12:38:03;19.10;56.70
11239;DHT22;5677;48.488;13.436;2022-09-12T12:40:31;19.10;56.70
11239;DHT22;5677;48.488;13.436;2022-09-12T12:43:03;19.10;56.70
11239;DHT22;5677;48.488;13.436;2022-09-12T12:46:07;19.10;56.70
11239;DHT22;5677;48.488;13.436;2022-09-12T12:49:02;19.10;56.70
11239;DHT22;5677;48.488;13.436;2022-09-12T12:51:54;19.10;56.80
11239;DHT22;5677;48.488;13.436;2022-09-12T12:54:28;19.10;56.80
11239;DHT22;5677;48.488;13.436;2022-09-12T12:57:26;19.10;56.80
11239;DHT22;5677;48.488;13.436;2022-09-12T12:59:58;19.10;56.70
11239;DHT22;5677;48.488;13.436;2022-09-12T13:02:32;19.10;56.80
11239;DHT22;5677;48.488;13.436;2022-09-12T13:05:06;19.10;56.80
11239;DHT22;5677;48.488;13.436;2022-09-12T13:07:43;19.10;56.80
11239;DHT22;5677;48.488;13.436;2022-09-12T13:10:21;19.20;56.70
11239;DHT22;5677;48.488;13.436;2022-09-12T13:12:52;19.10;56.80
11239;DHT22;5677;48.488;13.436;2022-09-12T13:15:47;19.10;56.80
11239;DHT22;5677;48.488;13.436;2022-09-12T13:18:22;19.20;56.80
11239;DHT22;5677;48.488;13.436;2022-09-12T13:20:55;19.20;56.80
11239;DHT22;5677;48.488;13.436;2022-09-12T13:23:31;19.20;56.70
11239;DHT22;5677;48.488;13.436;2022-09-12T13:26:00;19.20;56.70
11239;DHT22;5677;48.488;13.436;2022-09-12T13:28:29;19.20;56.70
11239;DHT22;5677;48.488;13.436;2022-09-12T13:30:59;19.20;56.70
11239;DHT22;5677;48.488;13.436;2022-09-12T13:33:36;19.20;56.70
11239;DHT22;5677;48.488;13.436;2022-09-12T13:36:23;19.20;56.70
11239;DHT22;5677;48.488;13.436;2022-09-12T13:39:19;19.20;56.70
11239;DHT22;5677;48.488;13.436;2022-09-12T13:45:00;19.20;56.70
11239;DHT22;5677;48.488;13.436;2022-09-12T13:47:33;19.20;56.70
11239;DHT22;5677;48.488;13.436;2022-09-12T13:50:07;19.20;56.70
11239;DHT22;5677;48.488;13.436;2022-09-12T13:52:39;19.20;56.70
11239;DHT22;5677;48.488;13.436;2022-09-12T13:55:24;19.20;57.40
11239;DHT22;5677;48.488;13.436;2022-09-12T13:57:57;19.20;56.70
11239;DHT22;5677;48.488;13.436;2022-09-12T14:00:27;19.30;56.80
11239;DHT22;5677;48.488;13.436;2022-09-12T14:02:56;19.30;57.40
11239;DHT22;5677;48.488;13.436;2022-09-12T14:05:46;19.20;56.70
11239;DHT22;5677;48.488;13.436;2022-09-12T14:08:21;19.20;56.70
11239;DHT22;5677;48.488;13.436;2022-09-12T14:10:49;19.30;56.80
11239;DHT22;5677;48.488;13.436;2022-09-12T14:13:19;19.20;56.60
11239;DHT22;5677;48.488;13.436;2022-09-12T14:15:49;19.20;56.70
11239;DHT22;5677;48.488;13.436;2022-09-12T14:18:23;19.30;56.80
11239;DHT22;5677;48.488;13.436;2022-09-12T14:20:54;19.20;56.70
11239;DHT22;5677;48.488;13.436;2022-09-12T14:23:27;19.20;56.70
11239;DHT22;5677;48.488;13.436;2022-09-12T14:25:58;19.20;56.70
11239;DHT22;5677;48.488;13.436;2022-09-12T14:28:29;19.20;56.70
11239;DHT22;5677;48.488;13.436;2022-09-12T14:31:00;19.20;56.70
11239;DHT22;5677;48.488;13.436;2022-09-12T14:33:32;19.20;56.70
11239;DHT22;5677;48.488;13.436;2022-09-12T14:36:21;19.30;56.80
11239;DHT22;5677;48.488;13.436;2022-09-12T14:38:52;19.20;56.60
11239;DHT22;5677;48.488;13.436;2022-09-12T14:41:26;19.20;56.70
11239;DHT22;5677;48.488;13.436;2022-09-12T14:43:58;19.30;56.70
11239;DHT22;5677;48.488;13.436;2022-09-12T14:46:30;19.20;56.60
11239;DHT22;5677;48.488;13.436;2022-09-12T14:49:05;19.20;56.60
11239;DHT22;5677;48.488;13.436;2022-09-12T14:51:37;19.20;56.60
11239;DHT22;5677;48.488;13.436;2022-09-12T14:54:36;19.20;56.60
11239;DHT22;5677;48.488;13.436;2022-09-12T14:57:31;19.20;56.60
11239;DHT22;5677;48.488;13.436;2022-09-12T15:00:18;19.20;56.60
11239;DHT22;5677;48.488;13.436;2022-09-12T15:02:49;19.20;56.60
11239;DHT22;5677;48.488;13.436;2022-09-12T15:05:22;19.20;56.60
11239;DHT22;5677;48.488;13.436;2022-09-12T15:07:54;19.20;56.60
11239;DHT22;5677;48.488;13.436;2022-09-12T15:10:26;19.20;56.60
11239;DHT22;5677;48.488;13.436;2022-09-12T15:13:20;19.20;56.60
11239;DHT22;5677;48.488;13.436;2022-09-12T15:15:50;19.20;56.60
11239;DHT22;5677;48.488;13.436;2022-09-12T15:18:19;19.20;56.60
11239;DHT22;5677;48.488;13.436;2022-09-12T15:20:49;19.20;56.60
11239;DHT22;5677;48.488;13.436;2022-09-12T15:23:29;19.20;56.60
11239;DHT22;5677;48.488;13.436;2022-09-12T15:26:00;19.20;56.70
11239;DHT22;5677;48.488;13.436;2022-09-12T15:28:29;19.20;56.60
11239;DHT22;5677;48.488;13.436;2022-09-12T15:31:01;19.20;56.60
11239;DHT22;5677;48.488;13.436;2022-09-12T15:33:31;19.20;56.60
11239;DHT22;5677;48.488;13.436;2022-09-12T15:35:58;19.20;56.70
11239;DHT22;5677;48.488;13.436;2022-09-12T15:38:26;19.20;56.60
11239;DHT22;5677;48.488;13.436;2022-09-12T15:40:53;19.20;56.60
11239;DHT22;5677;48.488;13.436;2022-09-12T15:43:22;19.20;56.60
11239;DHT22;5677;48.488;13.436;2022-09-12T15:45:50;19.20;56.60
11239;DHT22;5677;48.488;13.436;2022-09-12T15:48:19;19.20;56.60
11239;DHT22;5677;48.488;13.436;2022-09-12T15:50:46;19.20;56.60
11239;DHT22;5677;48.488;13.436;2022-09-12T15:53:15;19.20;56.60
11239;DHT22;5677;48.488;13.436;2022-09-12T15:55:43;19.20;56.60
11239;DHT22;5677;48.488;13.436;2022-09-12T15:58:11;19.20;56.60
11239;DHT22;5677;48.488;13.436;2022-09-12T16:00:38;19.20;56.70
11239;DHT22;5677;48.488;13.436;2022-09-12T16:03:05;19.20;56.60
11239;DHT22;5677;48.488;13.436;2022-09-12T16:05:32;19.20;56.60
11239;DHT22;5677;48.488;13.436;2022-09-12T16:08:00;19.20;56.70
11239;DHT22;5677;48.488;13.436;2022-09-12T16:10:28;19.20;56.60
11239;DHT22;5677;48.488;13.436;2022-09-12T16:12:57;19.20;56.60
11239;DHT22;5677;48.488;13.436;2022-09-12T16:15:25;19.20;56.60
11239;DHT22;5677;48.488;13.436;2022-09-12T16:17:52;19.20;56.70